Time;durP1;ratioP1;P1;durP2;ratioP2;P2;SDS_P1;SDS_P2;PMS_P1;PMS_P2;Temp;Humidity;BMP_temperature;BMP_pressure;BME280_temperature;BME280_humidity;BME280_pressure;Samples;Min_cycle;Max_cycle;Signal;HPM_P1;HPM_P2
2022/06/10 00:01:48;;;;;;;1.20;1.00;;;17.40;59.90;;;;;;5043047;28;20252;-68
2022/06/10 00:04:14;;;;;;;1.30;1.20;;;17.30;60.40;;;;;;5054555;28;20185;-68
2022/06/10 00:06:39;;;;;;;1.20;1.10;;;17.30;59.50;;;;;;5048290;28;20186;-68
2022/06/10 00:09:05;;;;;;;2.70;1.40;;;17.40;61.80;;;;;;5054928;28;20182;-68
2022/06/10 00:11:31;;;;;;;1.40;1.30;;;17.40;61.70;;;;;;5069488;28;20180;-68
2022/06/10 00:13:56;;;;;;;1.23;1.13;;;17.30;61.60;;;;;;5070987;28;20214;-68
2022/06/10 00:16:22;;;;;;;1.93;1.10;;;17.30;60.80;;;;;;5066719;28;20186;-68
2022/06/10 00:18:48;;;;;;;1.40;1.30;;;17.40;60.90;;;;;;5069334;28;20219;-68
2022/06/10 00:21:16;;;;;;;2.60;1.10;;;17.40;60.10;;;;;;5071876;28;20191;-68
2022/06/10 00:23:42;;;;;;;1.20;1.10;;;17.50;59.40;;;;;;5053857;28;20191;-68
2022/06/10 00:26:10;;;;;;;2.37;1.17;;;17.60;59.00;;;;;;5068062;28;20277;-70
2022/06/10 00:28:35;;;;;;;2.23;1.30;;;17.50;61.00;;;;;;5067401;28;20240;-69
2022/06/10 00:31:01;;;;;;;4.73;1.30;;;17.50;60.40;;;;;;5068271;28;20209;-70
2022/06/10 00:33:27;;;;;;;4.00;1.30;;;17.40;62.10;;;;;;5046375;28;20195;-69
2022/06/10 00:35:53;;;;;;;1.37;1.27;;;17.40;62.00;;;;;;5038633;28;20198;-69
2022/06/10 00:38:19;;;;;;;1.67;1.30;;;17.40;61.20;;;;;;5048946;28;20269;-70
2022/06/10 00:40:54;;;;;;;2.07;1.20;;;17.40;62.70;;;;;;5058776;28;20183;-71
2022/06/10 00:43:24;;;;;;;1.40;1.30;;;17.30;60.60;;;;;;5037736;28;20213;-71
2022/06/10 00:46:21;;;;;;;1.40;1.30;;;17.30;62.20;;;;;;5053558;28;20203;-71
2022/06/10 00:49:01;;;;;;;1.40;1.30;;;17.30;62.00;;;;;;5060500;28;20231;-71
2022/06/10 00:51:48;;;;;;;1.77;1.47;;;17.30;62.90;;;;;;5063031;28;20273;-70
2022/06/10 00:54:25;;;;;;;1.30;1.20;;;17.30;60.60;;;;;;5071113;28;20182;-69
2022/06/10 00:56:56;;;;;;;2.90;1.50;;;17.40;60.40;;;;;;5061164;28;20272;-67
2022/06/10 00:59:24;;;;;;;2.30;1.30;;;17.40;59.90;;;;;;5053252;28;20179;-68
2022/06/10 01:01:54;;;;;;;2.70;1.33;;;17.40;60.00;;;;;;5056787;28;20208;-68
2022/06/10 01:04:20;;;;;;;3.90;1.60;;;17.50;62.10;;;;;;5064063;28;20189;-68
2022/06/10 01:06:46;;;;;;;1.83;1.53;;;17.40;61.50;;;;;;5041814;28;20186;-68
2022/06/10 01:09:13;;;;;;;1.40;1.30;;;17.40;62.10;;;;;;5077793;28;20190;-68
2022/06/10 01:12:14;;;;;;;1.10;1.10;;;17.40;62.50;;;;;;5049526;28;20227;-68
2022/06/10 01:15:10;;;;;;;1.50;1.40;;;17.40;61.80;;;;;;5059469;28;20185;-68
2022/06/10 01:17:51;;;;;;;2.60;1.43;;;17.40;63.20;;;;;;5058658;28;20191;-68
2022/06/10 01:20:34;;;;;;;1.50;1.20;;;17.40;63.20;;;;;;5063953;28;20203;-68
2022/06/10 01:23:34;;;;;;;1.70;1.43;;;17.40;61.70;;;;;;5057618;28;20218;-68
2022/06/10 01:27:47;;;;;;;1.43;1.27;;;17.30;62.70;;;;;;5064564;28;20181;-69
2022/06/10 01:29:48;;;;;;;1.20;1.10;;;17.30;63.20;;;;;;5062010;28;20215;-69
2022/06/10 01:32:26;;;;;;;1.03;1.00;;;17.30;60.70;;;;;;5097804;28;20217;-69
2022/06/10 01:35:21;;;;;;;1.43;1.00;;;17.40;60.40;;;;;;5057733;28;20190;-69
2022/06/10 01:38:13;;;;;;;0.90;0.90;;;17.50;60.00;;;;;;5053095;28;20185;-69
2022/06/10 01:41:00;;;;;;;2.40;1.40;;;17.50;61.90;;;;;;5058464;28;20210;-68
2022/06/10 01:43:55;;;;;;;1.47;1.10;;;17.40;63.50;;;;;;5070204;28;20266;-69
2022/06/10 01:46:32;;;;;;;1.33;1.07;;;17.40;60.60;;;;;;4983072;28;20195;-69
2022/06/10 01:49:39;;;;;;;1.40;1.00;;;17.40;62.40;;;;;;5056959;28;20228;-68
2022/06/10 01:52:16;;;;;;;0.93;0.93;;;17.50;61.70;;;;;;5008716;28;20196;-69
2022/06/10 01:54:44;;;;;;;2.33;1.00;;;17.50;60.90;;;;;;4992050;28;20298;-68
2022/06/10 01:57:25;;;;;;;1.70;1.00;;;17.40;60.90;;;;;;5030285;28;20221;-68
2022/06/10 02:00:23;;;;;;;1.00;0.90;;;17.50;61.20;;;;;;5069192;28;20262;-68
2022/06/10 02:03:13;;;;;;;2.60;0.87;;;17.50;60.00;;;;;;5049129;28;20225;-67
2022/06/10 02:05:48;;;;;;;1.47;0.80;;;17.60;60.10;;;;;;5061233;28;20186;-68
2022/06/10 02:08:22;;;;;;;2.37;1.10;;;17.50;60.40;;;;;;5054183;28;20188;-68
2022/06/10 02:11:01;;;;;;;0.80;0.70;;;17.50;62.80;;;;;;5052574;28;20183;-68
2022/06/10 02:13:30;;;;;;;2.50;0.87;;;17.50;59.80;;;;;;5049854;28;20189;-68
2022/06/10 02:16:01;;;;;;;1.57;0.80;;;17.60;59.90;;;;;;5061119;28;20185;-68
2022/06/10 02:18:47;;;;;;;0.80;0.80;;;17.60;60.00;;;;;;5056850;28;20200;-69
2022/06/10 02:21:18;;;;;;;1.40;1.00;;;17.50;60.00;;;;;;5056408;28;20219;-69
2022/06/10 02:23:55;;;;;;;1.90;0.80;;;17.60;60.20;;;;;;5062408;28;20190;-70
2022/06/10 02:26:23;;;;;;;0.90;0.90;;;17.50;60.90;;;;;;5068946;28;20184;-73
2022/06/10 02:28:53;;;;;;;1.87;0.70;;;17.60;59.90;;;;;;5054856;28;20186;-67
2022/06/10 02:31:27;;;;;;;1.73;0.57;;;17.70;60.70;;;;;;5057020;28;20183;-70
2022/06/10 02:33:54;;;;;;;0.70;0.70;;;17.70;59.80;;;;;;5055477;28;20225;-70
2022/06/10 02:36:19;;;;;;;0.70;0.70;;;17.60;60.30;;;;;;5070596;28;20281;-70
2022/06/10 02:39:18;;;;;;;0.77;0.77;;;17.70;59.20;;;;;;5055795;28;20269;-69
2022/06/10 02:42:14;;;;;;;0.63;0.63;;;17.70;59.10;;;;;;5055835;28;20248;-71
2022/06/10 02:44:49;;;;;;;0.70;0.70;;;17.70;59.60;;;;;;5059433;28;20190;-69
2022/06/10 02:47:27;;;;;;;0.70;0.50;;;17.70;60.00;;;;;;5055747;28;20192;-70
2022/06/10 02:49:53;;;;;;;1.13;0.70;;;17.70;60.20;;;;;;5060308;28;20230;-70
2022/06/10 02:52:23;;;;;;;0.80;0.70;;;17.60;59.60;;;;;;5082469;28;20205;-70
2022/06/10 02:54:48;;;;;;;1.17;1.03;;;17.70;60.40;;;;;;5060851;28;20225;-70
2022/06/10 02:57:17;;;;;;;1.60;0.60;;;17.80;58.40;;;;;;5044858;28;20225;-70
2022/06/10 03:02:42;;;;;;;0.70;0.70;;;17.80;58.70;;;;;;5062045;28;20213;-68
2022/06/10 03:05:24;;;;;;;0.80;0.80;;;17.80;58.60;;;;;;5067437;28;20192;-71
2022/06/10 03:08:01;;;;;;;0.73;0.70;;;17.80;58.40;;;;;;5058119;28;20186;-72
2022/06/10 03:10:48;;;;;;;4.63;0.90;;;17.80;57.50;;;;;;5065916;28;20186;-72
2022/06/10 03:13:46;;;;;;;1.37;0.90;;;17.90;58.00;;;;;;5068556;28;20186;-73
2022/06/10 03:16:28;;;;;;;1.20;0.63;;;17.80;58.20;;;;;;5064146;28;20186;-73
2022/06/10 03:19:33;;;;;;;0.50;0.50;;;17.80;58.80;;;;;;5058618;28;20192;-73
2022/06/10 03:22:06;;;;;;;0.70;0.70;;;17.80;58.20;;;;;;5051620;28;20236;-72
2022/06/10 03:24:54;;;;;;;1.03;0.60;;;17.80;58.60;;;;;;5064110;28;20207;-71
2022/06/10 03:27:37;;;;;;;0.80;0.80;;;17.80;59.90;;;;;;5066630;28;20186;-71
2022/06/10 03:30:12;;;;;;;0.80;0.70;;;17.80;59.10;;;;;;5060364;28;20203;-71
2022/06/10 03:33:02;;;;;;;0.77;0.70;;;17.80;58.70;;;;;;5059888;28;20244;-72
2022/06/10 03:35:45;;;;;;;0.77;0.70;;;17.80;59.00;;;;;;5065792;28;20183;-72
2022/06/10 03:38:12;;;;;;;2.00;0.70;;;17.70;60.00;;;;;;5103173;28;20270;-72
2022/06/10 03:40:39;;;;;;;0.80;0.67;;;17.80;59.60;;;;;;5062481;28;20186;-72
2022/06/10 03:43:08;;;;;;;0.63;0.63;;;17.80;59.60;;;;;;5060024;28;20244;-72
2022/06/10 03:45:43;;;;;;;0.70;0.70;;;17.80;58.70;;;;;;5059735;28;20183;-72
2022/06/10 03:48:16;;;;;;;0.70;0.70;;;17.80;59.40;;;;;;5063587;28;20178;-72
2022/06/10 03:50:43;;;;;;;0.83;0.60;;;17.70;60.10;;;;;;5060037;28;20182;-72
2022/06/10 03:53:14;;;;;;;2.10;0.70;;;17.80;60.30;;;;;;5043260;28;20187;-72
2022/06/10 03:55:40;;;;;;;0.60;0.60;;;17.70;60.50;;;;;;5059019;28;20189;-65
2022/06/10 03:58:06;;;;;;;0.90;0.80;;;17.70;61.70;;;;;;5063945;28;20320;-65
2022/06/10 04:00:32;;;;;;;0.80;0.70;;;17.70;60.20;;;;;;5057402;28;20323;-65
2022/06/10 04:02:57;;;;;;;0.50;0.50;;;17.60;61.40;;;;;;5069854;28;20209;-65
2022/06/10 04:05:23;;;;;;;3.30;1.00;;;17.60;60.20;;;;;;5044331;28;20186;-65
2022/06/10 04:07:49;;;;;;;0.67;0.67;;;17.70;60.30;;;;;;5068463;28;20181;-65
2022/06/10 04:10:18;;;;;;;0.60;0.60;;;17.70;60.80;;;;;;5069896;28;20236;-65
2022/06/10 04:12:45;;;;;;;1.50;0.67;;;17.70;60.50;;;;;;5070901;28;20181;-65
2022/06/10 04:15:15;;;;;;;1.00;0.80;;;17.70;60.00;;;;;;5067248;28;20217;-65
2022/06/10 04:17:46;;;;;;;2.57;0.73;;;17.70;60.10;;;;;;5052324;28;20186;-64
2022/06/10 04:20:26;;;;;;;0.70;0.70;;;17.70;60.30;;;;;;5070085;28;20186;-66
2022/06/10 04:22:52;;;;;;;1.20;0.90;;;17.80;60.20;;;;;;5061595;28;20252;-66
2022/06/10 04:25:18;;;;;;;1.17;1.07;;;17.80;59.90;;;;;;5063671;28;20181;-66
2022/06/10 04:27:44;;;;;;;0.80;0.73;;;17.70;60.20;;;;;;5059513;28;20217;-67
2022/06/10 04:30:28;;;;;;;1.27;0.80;;;17.80;60.20;;;;;;5056421;28;20187;-67
2022/06/10 04:32:55;;;;;;;0.60;0.60;;;17.70;60.80;;;;;;5068658;28;20196;-67
2022/06/10 04:35:21;;;;;;;2.50;0.80;;;17.70;60.30;;;;;;5052119;28;20209;-67
2022/06/10 04:37:48;;;;;;;0.70;0.70;;;17.70;61.00;;;;;;5092577;28;20190;-67
2022/06/10 04:40:16;;;;;;;2.07;1.00;;;17.70;60.50;;;;;;5052702;28;20213;-67
2022/06/10 04:42:44;;;;;;;3.17;0.70;;;17.70;61.20;;;;;;5042213;28;20297;-67
2022/06/10 04:45:10;;;;;;;2.30;0.90;;;17.60;60.90;;;;;;5060374;28;20240;-68
2022/06/10 04:47:36;;;;;;;1.20;0.77;;;17.60;61.70;;;;;;5034051;28;20182;-66
2022/06/10 04:50:06;;;;;;;0.57;0.57;;;17.60;61.50;;;;;;5044790;28;20233;-67
2022/06/10 04:52:33;;;;;;;0.90;0.80;;;17.60;61.30;;;;;;5062627;28;20217;-67
2022/06/10 04:54:59;;;;;;;2.40;0.90;;;17.50;61.20;;;;;;5071608;28;20221;-67
2022/06/10 04:57:26;;;;;;;1.13;0.90;;;17.50;61.10;;;;;;5055967;28;20214;-67
2022/06/10 04:59:52;;;;;;;1.30;0.80;;;17.60;62.20;;;;;;5071171;28;20206;-64
2022/06/10 05:02:17;;;;;;;1.90;1.10;;;17.60;60.60;;;;;;5076914;28;20206;-67
2022/06/10 05:04:43;;;;;;;1.33;0.70;;;17.60;61.20;;;;;;5046158;28;20182;-66
2022/06/10 05:07:08;;;;;;;0.90;0.83;;;17.60;60.60;;;;;;5058597;28;20192;-67
2022/06/10 05:09:34;;;;;;;3.93;0.90;;;17.70;61.30;;;;;;5061422;28;20187;-68
2022/06/10 05:12:00;;;;;;;0.90;0.70;;;17.60;62.40;;;;;;5045069;28;20221;-67
2022/06/10 05:14:25;;;;;;;3.03;1.10;;;17.60;61.90;;;;;;5063018;28;20220;-67
2022/06/10 05:16:51;;;;;;;1.47;0.90;;;17.60;61.30;;;;;;5040115;28;20191;-66
2022/06/10 05:19:17;;;;;;;1.93;0.77;;;17.70;61.10;;;;;;5082830;28;20209;-66
2022/06/10 05:21:42;;;;;;;1.10;0.90;;;17.70;60.80;;;;;;5055415;28;20191;-66
2022/06/10 05:24:08;;;;;;;1.57;0.97;;;17.70;61.30;;;;;;5044010;28;20198;-67
2022/06/10 05:26:34;;;;;;;2.57;0.90;;;17.60;61.00;;;;;;5046033;28;20190;-66
2022/06/10 05:29:00;;;;;;;0.80;0.80;;;17.70;61.40;;;;;;5059212;28;20230;-67
2022/06/10 05:31:26;;;;;;;1.80;0.93;;;17.70;61.40;;;;;;5058646;28;20199;-67
2022/06/10 05:36:36;;;;;;;2.30;2.10;;;17.60;62.00;;;;;;5064547;28;20260;-69
2022/06/10 05:39:03;;;;;;;2.00;0.77;;;17.50;63.80;;;;;;5067375;28;20194;-67
2022/06/10 05:44:12;;;;;;;1.00;1.00;;;17.50;64.40;;;;;;5070767;28;20215;-66
2022/06/10 05:46:38;;;;;;;2.30;0.70;;;17.50;62.70;;;;;;5049300;28;20179;-66
2022/06/10 05:49:04;;;;;;;1.10;1.00;;;17.60;63.00;;;;;;5068211;28;20306;-67
2022/06/10 05:51:29;;;;;;;1.07;0.70;;;17.60;62.50;;;;;;5063141;28;20261;-65
2022/06/10 05:53:55;;;;;;;0.97;0.93;;;17.60;63.00;;;;;;5071944;28;20197;-66
2022/06/10 05:56:21;;;;;;;0.90;0.90;;;17.70;62.30;;;;;;5059728;28;20221;-67
2022/06/10 05:58:46;;;;;;;1.83;0.80;;;17.60;62.30;;;;;;5064050;28;20183;-67
2022/06/10 06:01:12;;;;;;;0.93;0.90;;;17.70;61.40;;;;;;5046669;28;20182;-67
2022/06/10 06:03:38;;;;;;;1.33;0.90;;;17.80;61.10;;;;;;5046728;28;20214;-66
2022/06/10 06:06:04;;;;;;;2.43;0.83;;;17.80;61.10;;;;;;5052812;28;20202;-66
2022/06/10 06:08:30;;;;;;;1.30;1.03;;;17.80;61.10;;;;;;5058856;28;20197;-66
2022/06/10 06:10:55;;;;;;;1.47;0.93;;;17.90;61.30;;;;;;5083813;28;20194;-66
2022/06/10 06:13:21;;;;;;;1.70;0.97;;;17.90;61.30;;;;;;5052564;28;20208;-66
2022/06/10 06:15:47;;;;;;;2.07;0.90;;;17.90;61.40;;;;;;5087761;28;20276;-66
2022/06/10 06:18:13;;;;;;;1.07;1.00;;;17.80;63.10;;;;;;5054231;28;20201;-66
2022/06/10 06:20:39;;;;;;;0.97;0.93;;;17.80;63.70;;;;;;5038056;28;20202;-66
2022/06/10 06:23:05;;;;;;;1.03;0.80;;;17.80;62.30;;;;;;5101863;28;20233;-66
2022/06/10 06:25:32;;;;;;;1.00;0.90;;;17.80;61.30;;;;;;5056036;28;20191;-66
2022/06/10 06:27:58;;;;;;;0.80;0.80;;;17.90;60.70;;;;;;5065023;28;20211;-66
2022/06/10 06:30:32;;;;;;;1.23;0.90;;;17.90;63.00;;;;;;5068324;28;20206;-66
2022/06/10 06:33:01;;;;;;;1.33;0.70;;;17.90;62.80;;;;;;5090301;28;20188;-66
2022/06/10 06:35:27;;;;;;;1.10;0.90;;;17.90;63.50;;;;;;5059345;28;20177;-66
2022/06/10 06:37:53;;;;;;;1.07;0.73;;;18.00;62.60;;;;;;5049173;28;20285;-66
2022/06/10 06:40:19;;;;;;;0.90;0.90;;;18.00;61.40;;;;;;5057113;28;20257;-66
2022/06/10 06:42:46;;;;;;;1.17;1.00;;;18.10;61.70;;;;;;5058500;28;20202;-66
2022/06/10 06:45:12;;;;;;;0.80;0.80;;;18.10;61.70;;;;;;5054260;28;20277;-66
2022/06/10 06:47:40;;;;;;;2.17;0.90;;;18.20;61.10;;;;;;5057941;28;20206;-67
2022/06/10 06:50:06;;;;;;;1.10;0.80;;;18.30;60.40;;;;;;5072467;28;20241;-66
2022/06/10 06:52:32;;;;;;;1.90;0.87;;;18.30;62.20;;;;;;5055790;28;20196;-66
2022/06/10 06:54:58;;;;;;;1.30;0.83;;;18.30;61.10;;;;;;5047398;28;20191;-67
2022/06/10 06:57:25;;;;;;;1.20;0.90;;;18.30;60.90;;;;;;5079139;28;20277;-66
2022/06/10 06:59:53;;;;;;;1.30;1.00;;;18.30;63.30;;;;;;5056337;28;20198;-66
2022/06/10 07:02:19;;;;;;;3.00;1.60;;;18.30;63.70;;;;;;5055836;28;20206;-67
2022/06/10 07:04:45;;;;;;;1.10;0.80;;;18.30;62.90;;;;;;5069658;28;20278;-66
2022/06/10 07:07:11;;;;;;;1.63;0.90;;;18.30;63.50;;;;;;5050315;28;20250;-66
2022/06/10 07:09:37;;;;;;;2.50;1.10;;;18.30;63.10;;;;;;5066725;28;20194;-66
2022/06/10 07:12:03;;;;;;;0.93;0.90;;;18.30;64.10;;;;;;5072056;28;20207;-66
2022/06/10 07:14:29;;;;;;;0.97;0.87;;;18.30;62.20;;;;;;5053268;28;20281;-67
2022/06/10 07:16:54;;;;;;;1.23;0.80;;;18.30;62.20;;;;;;5061802;28;20266;-67
2022/06/10 07:19:21;;;;;;;1.80;0.97;;;18.30;61.30;;;;;;5043361;28;20195;-66
2022/06/10 07:21:47;;;;;;;1.27;0.70;;;18.30;62.80;;;;;;5062928;28;20244;-66
2022/06/10 07:24:13;;;;;;;0.77;0.77;;;18.40;63.40;;;;;;5051092;28;20229;-67
2022/06/10 07:26:39;;;;;;;1.20;0.80;;;18.30;62.30;;;;;;5060104;28;20190;-67
2022/06/10 07:29:06;;;;;;;1.40;0.90;;;18.40;61.80;;;;;;5051501;28;20191;-66
2022/06/10 07:31:32;;;;;;;1.10;1.00;;;18.40;62.30;;;;;;5064640;28;20182;-66
2022/06/10 07:33:58;;;;;;;0.97;0.97;;;18.40;61.80;;;;;;5072090;28;20182;-67
2022/06/10 07:36:24;;;;;;;0.67;0.67;;;18.40;63.80;;;;;;5072845;28;20194;-66
2022/06/10 07:38:50;;;;;;;2.73;1.10;;;18.40;60.70;;;;;;5072769;28;20216;-66
2022/06/10 07:43:59;;;;;;;0.90;0.90;;;18.40;64.40;;;;;;5059030;28;20389;-66
2022/06/10 07:46:25;;;;;;;1.00;0.90;;;18.40;61.10;;;;;;5051911;28;20194;-67
2022/06/10 07:48:51;;;;;;;0.93;0.93;;;18.40;62.40;;;;;;5068280;28;20237;-67
2022/06/10 07:51:18;;;;;;;0.80;0.80;;;18.40;63.50;;;;;;5063074;28;20197;-66
2022/06/10 07:53:44;;;;;;;1.23;1.10;;;18.30;63.40;;;;;;5063017;28;20195;-66
2022/06/10 07:56:13;;;;;;;2.73;1.50;;;18.30;65.90;;;;;;5058257;28;20197;-66
2022/06/10 07:58:39;;;;;;;1.13;1.00;;;18.30;64.10;;;;;;5063352;28;20194;-66
2022/06/10 08:01:05;;;;;;;1.63;1.10;;;18.30;61.00;;;;;;5062902;28;20190;-67
2022/06/10 08:03:30;;;;;;;2.40;1.00;;;18.40;61.40;;;;;;5049412;28;20214;-66
2022/06/10 08:05:58;;;;;;;1.33;0.80;;;18.50;60.40;;;;;;5069343;28;20186;-67
2022/06/10 08:08:24;;;;;;;1.60;0.90;;;18.50;63.10;;;;;;5063994;28;20179;-67
2022/06/10 08:10:50;;;;;;;2.60;1.00;;;18.50;61.00;;;;;;5067154;28;20191;-66
2022/06/10 08:13:16;;;;;;;1.20;0.90;;;18.60;61.40;;;;;;5053454;28;20202;-66
2022/06/10 08:15:44;;;;;;;1.27;1.03;;;18.60;60.90;;;;;;5054235;28;20194;-66
2022/06/10 08:18:11;;;;;;;0.70;0.70;;;18.60;63.50;;;;;;5067487;28;20209;-67
2022/06/10 08:23:27;;;;;;;1.10;0.90;;;18.60;63.00;;;;;;5054862;28;20264;-66
2022/06/10 08:25:54;;;;;;;1.10;0.90;;;18.60;65.10;;;;;;5048869;28;20254;-66
2022/06/10 08:28:21;;;;;;;1.10;0.93;;;18.60;61.70;;;;;;5052167;28;20300;-66
2022/06/10 08:30:46;;;;;;;1.40;0.90;;;18.60;60.10;;;;;;5068453;28;20186;-66
2022/06/10 08:33:12;;;;;;;1.10;0.87;;;18.70;60.10;;;;;;5052549;28;20324;-66
2022/06/10 08:35:39;;;;;;;2.83;1.07;;;18.70;60.90;;;;;;5055131;28;20183;-67
2022/06/10 08:38:10;;;;;;;1.60;1.07;;;18.80;64.50;;;;;;5055242;28;20197;-66
2022/06/10 08:40:39;;;;;;;1.53;1.23;;;18.80;63.60;;;;;;5066376;28;20194;-67
2022/06/10 08:43:47;;;;;;;1.77;0.80;;;18.80;68.50;;;;;;5051894;28;20220;-66
2022/06/10 08:46:31;;;;;;;0.80;0.80;;;18.90;62.10;;;;;;5067566;28;20185;-67
2022/06/10 08:49:26;;;;;;;1.13;0.90;;;19.00;63.60;;;;;;5061289;28;20252;-66
2022/06/10 08:52:09;;;;;;;0.90;0.90;;;19.00;62.20;;;;;;5061319;28;20275;-67
2022/06/10 08:54:34;;;;;;;0.67;0.67;;;19.00;60.80;;;;;;5057481;28;20212;-66
2022/06/10 08:57:30;;;;;;;1.00;0.90;;;19.00;59.40;;;;;;5051689;28;20271;-67
2022/06/10 08:59:59;;;;;;;1.00;0.90;;;19.20;59.90;;;;;;5052228;28;20178;-66
2022/06/10 09:02:27;;;;;;;1.10;1.10;;;19.20;58.40;;;;;;5059861;28;20209;-66
2022/06/10 09:05:08;;;;;;;1.30;0.90;;;19.30;59.80;;;;;;5061807;28;20240;-67
2022/06/10 09:07:41;;;;;;;0.97;0.70;;;19.40;62.40;;;;;;5051450;28;20501;-67
2022/06/10 09:10:15;;;;;;;0.93;0.60;;;19.50;59.20;;;;;;5084360;28;20178;-67
2022/06/10 09:13:09;;;;;;;2.00;0.90;;;19.60;58.70;;;;;;5063218;28;20184;-67
2022/06/10 09:15:42;;;;;;;0.90;0.90;;;19.70;57.20;;;;;;5064458;28;20185;-67
2022/06/10 09:18:18;;;;;;;0.60;0.60;;;19.80;60.80;;;;;;5056188;28;20194;-67
2022/06/10 09:21:01;;;;;;;1.00;0.77;;;19.90;57.10;;;;;;5058561;28;20212;-67
2022/06/10 09:23:40;;;;;;;1.23;1.10;;;19.90;59.70;;;;;;5054097;28;20256;-67
2022/06/10 09:26:13;;;;;;;0.97;0.63;;;20.00;59.90;;;;;;5052314;28;20182;-67
2022/06/10 09:28:39;;;;;;;1.10;0.80;;;20.10;57.30;;;;;;5049551;28;20215;-67
2022/06/10 09:31:20;;;;;;;2.70;0.90;;;20.10;56.50;;;;;;5050124;28;20244;-67
2022/06/10 09:33:56;;;;;;;1.17;0.90;;;20.20;56.90;;;;;;5099323;28;20238;-67
2022/06/10 09:36:37;;;;;;;1.03;0.70;;;20.30;59.00;;;;;;5061247;28;20193;-67
2022/06/10 09:39:03;;;;;;;1.40;0.70;;;20.30;58.00;;;;;;5094029;28;20189;-67
2022/06/10 09:42:07;;;;;;;0.63;0.63;;;20.40;58.00;;;;;;5059750;28;20186;-67
2022/06/10 09:44:59;;;;;;;0.60;0.60;;;20.30;58.70;;;;;;5025534;28;20194;-66
2022/06/10 09:48:09;;;;;;;0.70;0.70;;;20.30;54.90;;;;;;5061926;28;20256;-67
2022/06/10 09:51:06;;;;;;;1.10;0.90;;;20.30;57.60;;;;;;4980154;28;20297;-67
2022/06/10 09:53:59;;;;;;;0.70;0.70;;;20.30;56.30;;;;;;5085428;28;20204;-67
2022/06/10 09:56:51;;;;;;;2.50;0.80;;;20.20;57.40;;;;;;5055497;28;20190;-67
2022/06/10 09:59:30;;;;;;;0.63;0.63;;;20.20;61.00;;;;;;5064813;28;20198;-67
2022/06/10 10:02:21;;;;;;;1.20;1.10;;;20.20;57.90;;;;;;5061225;28;20182;-67
2022/06/10 10:05:05;;;;;;;0.50;0.50;;;20.30;58.20;;;;;;5051122;28;20183;-67
2022/06/10 10:07:50;;;;;;;1.03;0.80;;;20.50;57.20;;;;;;5063399;28;20190;-67
2022/06/10 10:10:33;;;;;;;0.67;0.67;;;20.60;59.90;;;;;;5050501;28;20316;-68
2022/06/10 10:13:26;;;;;;;0.83;0.63;;;20.70;57.00;;;;;;5055753;28;20197;-68
2022/06/10 10:16:41;;;;;;;0.83;0.70;;;20.80;56.40;;;;;;5066687;28;20262;-67
2022/06/10 10:19:48;;;;;;;0.97;0.77;;;20.80;56.50;;;;;;5000729;28;20194;-68
2022/06/10 10:22:23;;;;;;;0.70;0.70;;;20.80;55.60;;;;;;5089054;28;20238;-67
2022/06/10 10:24:49;;;;;;;0.87;0.83;;;20.80;56.60;;;;;;5062609;28;20196;-66
2022/06/10 10:27:32;;;;;;;0.93;0.80;;;20.70;56.50;;;;;;5071384;28;20189;-66
2022/06/10 10:30:14;;;;;;;1.50;0.93;;;20.70;55.50;;;;;;5057540;28;20187;-67
2022/06/10 10:32:42;;;;;;;0.80;0.80;;;20.70;57.60;;;;;;5075514;28;20190;-67
2022/06/10 10:35:21;;;;;;;1.00;0.90;;;20.70;55.60;;;;;;5051335;28;20284;-67
2022/06/10 10:38:07;;;;;;;2.20;0.80;;;20.70;55.10;;;;;;5074657;28;20188;-66
2022/06/10 10:40:47;;;;;;;1.00;0.90;;;20.60;56.10;;;;;;5071700;28;20191;-67
2022/06/10 10:43:24;;;;;;;1.27;0.90;;;20.50;55.50;;;;;;5061849;28;20223;-66
2022/06/10 10:46:03;;;;;;;1.80;0.90;;;20.40;55.60;;;;;;5059287;28;20178;-66
2022/06/10 10:48:36;;;;;;;1.83;0.90;;;20.30;54.30;;;;;;5061119;28;20298;-67
2022/06/10 10:51:19;;;;;;;3.50;1.03;;;20.20;58.30;;;;;;5067793;28;20214;-66
2022/06/10 10:53:55;;;;;;;2.70;1.00;;;20.10;56.40;;;;;;5068319;28;20197;-67
2022/06/10 10:56:32;;;;;;;1.30;0.97;;;20.10;59.70;;;;;;5053070;28;20197;-66
2022/06/10 10:58:58;;;;;;;1.67;0.87;;;20.00;58.10;;;;;;5076470;28;20198;-67
2022/06/10 11:01:43;;;;;;;1.37;1.17;;;20.00;55.70;;;;;;5056568;28;20190;-66
2022/06/10 11:04:11;;;;;;;1.07;1.00;;;20.00;58.60;;;;;;5072633;28;20194;-66
2022/06/10 11:06:37;;;;;;;0.80;0.80;;;20.00;55.50;;;;;;5037375;28;20244;-66
2022/06/10 11:09:22;;;;;;;1.30;1.07;;;20.00;57.60;;;;;;5067472;28;20182;-66
2022/06/10 11:11:49;;;;;;;0.93;0.90;;;20.00;56.70;;;;;;5065990;28;20327;-66
2022/06/10 11:14:35;;;;;;;0.90;0.90;;;20.00;57.40;;;;;;5053413;28;20182;-67
2022/06/10 11:17:11;;;;;;;1.67;0.90;;;20.00;57.80;;;;;;5057465;28;20190;-67
2022/06/10 11:19:42;;;;;;;1.13;1.00;;;20.00;59.00;;;;;;5066505;28;20178;-67
2022/06/10 11:22:16;;;;;;;1.10;1.00;;;20.00;58.60;;;;;;5068656;28;20292;-66
2022/06/10 11:24:45;;;;;;;3.63;1.27;;;20.00;57.90;;;;;;5055107;28;20235;-67
2022/06/10 11:27:28;;;;;;;1.57;1.10;;;20.00;58.00;;;;;;5056994;28;20336;-67
2022/06/10 11:30:02;;;;;;;1.10;1.00;;;20.00;56.60;;;;;;5058061;28;20212;-67
2022/06/10 11:32:40;;;;;;;1.20;1.10;;;20.10;56.00;;;;;;5060877;28;20193;-67
2022/06/10 11:35:31;;;;;;;1.03;0.83;;;20.10;57.00;;;;;;5061362;28;20265;-68
2022/06/10 11:38:21;;;;;;;1.17;1.07;;;20.10;57.70;;;;;;5066242;28;20219;-67
2022/06/10 11:40:46;;;;;;;1.23;1.13;;;20.00;58.60;;;;;;5059383;28;20187;-68
2022/06/10 11:43:29;;;;;;;0.93;0.83;;;20.00;57.50;;;;;;5061052;28;20214;-67
2022/06/10 11:46:05;;;;;;;0.90;0.70;;;20.00;62.40;;;;;;5059413;28;20174;-68
2022/06/10 11:48:39;;;;;;;0.87;0.80;;;19.90;58.90;;;;;;5068717;28;20256;-68
2022/06/10 11:51:26;;;;;;;1.03;0.80;;;20.00;56.40;;;;;;5056348;28;20174;-68
2022/06/10 11:53:58;;;;;;;0.97;0.97;;;20.00;57.50;;;;;;5060756;28;20200;-67
2022/06/10 11:59:46;;;;;;;0.67;0.67;;;20.00;61.10;;;;;;5066599;28;20225;-68
2022/06/10 12:02:18;;;;;;;0.80;0.80;;;19.90;56.90;;;;;;5056910;28;20217;-68
2022/06/10 12:04:56;;;;;;;0.63;0.63;;;19.90;59.50;;;;;;5068102;28;20182;-68
2022/06/10 12:07:27;;;;;;;0.90;0.90;;;19.90;58.70;;;;;;5056700;28;20630;-67
2022/06/10 12:09:57;;;;;;;0.60;0.60;;;19.90;59.50;;;;;;5065260;28;20178;-68
2022/06/10 12:12:31;;;;;;;3.70;0.70;;;19.90;58.80;;;;;;5069565;28;20276;-68
2022/06/10 12:15:00;;;;;;;1.33;0.83;;;20.00;57.30;;;;;;5065703;28;20182;-68
2022/06/10 12:17:39;;;;;;;0.73;0.60;;;20.00;56.70;;;;;;5064286;28;20189;-68
2022/06/10 12:20:26;;;;;;;1.60;0.77;;;20.10;57.60;;;;;;5054596;28;20236;-67
2022/06/10 12:22:52;;;;;;;1.33;0.63;;;20.10;56.70;;;;;;5068198;28;20297;-68
2022/06/10 12:25:47;;;;;;;0.50;0.50;;;20.20;55.40;;;;;;5071120;28;20286;-68
2022/06/10 12:28:22;;;;;;;0.33;0.33;;;20.20;56.90;;;;;;5061487;28;20195;-68
2022/06/10 12:31:00;;;;;;;0.60;0.60;;;20.20;55.40;;;;;;5057676;28;20197;-67
2022/06/10 12:34:16;;;;;;;0.60;0.60;;;20.30;57.30;;;;;;5063940;28;20182;-67
2022/06/10 12:36:52;;;;;;;1.00;0.57;;;20.40;55.50;;;;;;4981456;28;20228;-67
2022/06/10 12:39:30;;;;;;;1.57;0.47;;;20.50;55.20;;;;;;5053923;28;20205;-67
2022/06/10 12:42:05;;;;;;;0.70;0.70;;;20.50;56.50;;;;;;5071093;28;20189;-67
2022/06/10 12:44:37;;;;;;;0.50;0.50;;;20.60;56.00;;;;;;5052142;28;20215;-67
2022/06/10 12:47:07;;;;;;;0.60;0.60;;;20.50;56.10;;;;;;5061459;28;20207;-67
2022/06/10 12:49:45;;;;;;;1.87;0.60;;;20.50;56.30;;;;;;5070806;28;20234;-67
2022/06/10 12:52:38;;;;;;;0.80;0.80;;;20.50;55.50;;;;;;5069124;28;20182;-67
2022/06/10 12:55:47;;;;;;;0.47;0.47;;;20.60;54.20;;;;;;5052004;28;20243;-66
2022/06/10 12:58:38;;;;;;;2.17;0.73;;;20.60;58.40;;;;;;5038412;28;20199;-67
2022/06/10 13:01:40;;;;;;;0.70;0.50;;;20.60;55.60;;;;;;5066085;28;20232;-67
2022/06/10 13:04:21;;;;;;;0.70;0.70;;;20.50;56.20;;;;;;5063660;28;20220;-67
2022/06/10 13:06:49;;;;;;;0.70;0.70;;;20.50;56.90;;;;;;5063539;28;20189;-66
2022/06/10 13:09:17;;;;;;;1.00;0.90;;;20.50;55.30;;;;;;5053839;28;20190;-67
2022/06/10 13:11:49;;;;;;;1.20;0.70;;;20.50;57.40;;;;;;5055053;28;20183;-67
2022/06/10 13:14:30;;;;;;;0.70;0.70;;;20.50;56.60;;;;;;5098375;28;20226;-66
2022/06/10 13:16:59;;;;;;;0.83;0.83;;;20.60;56.40;;;;;;5054093;28;20190;-66
2022/06/10 13:19:34;;;;;;;0.90;0.90;;;20.50;56.20;;;;;;5058925;28;20186;-67
2022/06/10 13:22:20;;;;;;;1.50;0.90;;;20.70;55.10;;;;;;5058852;28;20299;-65
2022/06/10 13:24:52;;;;;;;0.80;0.80;;;20.80;55.90;;;;;;5060463;28;20187;-67
2022/06/10 13:27:26;;;;;;;4.20;1.43;;;21.00;55.30;;;;;;5057393;28;20190;-67
2022/06/10 13:29:55;;;;;;;2.50;1.07;;;21.20;56.90;;;;;;5063814;28;20198;-67
2022/06/10 13:32:21;;;;;;;1.23;1.10;;;21.20;56.30;;;;;;5066305;28;20196;-68
2022/06/10 13:34:59;;;;;;;3.30;1.40;;;21.30;57.50;;;;;;5048585;28;20187;-67
2022/06/10 13:37:30;;;;;;;1.37;1.27;;;21.20;54.70;;;;;;5059206;28;20182;-67
2022/06/10 13:39:57;;;;;;;1.37;0.90;;;21.20;55.10;;;;;;5052371;28;20214;-67
2022/06/10 13:42:32;;;;;;;2.83;1.07;;;21.10;55.70;;;;;;5045984;28;20202;-67